Middlegate, Nevada
Current Conditions -  °F | °C
As of 9:56 AM on Monday 22 Dec 2014 (Local Time) from KNFL Reporting Station
Scattered Clouds Scattered Clouds  
Wind Chill: 53°   Ceiling: Unl
Heat Index: 53°   Visibility: 10mi
Dew Point: 39°   Wind: 0mph
Humidity: 59%   Direction: NA
Pressure: 30.3"   Gusts: NA
Location:  39.5809°N, 118.333°W
Report Text: KNFL 221756Z 00000KT 10SM FEW050 SCT150 SCT220 12/04 A3030 RMK AO2 SLP219 T01170039 10117 20022 51021
Loading
Personal Weather Stations






























Interactive Weather Map New forecast layout! Learn more

10-Day Weather Forecast

Advertisements
Track Severe Weather on mobile